sensor_id;sensor_type;location;lat;lon;timestamp;temperature;humidity
45619;DHT22;31343;47.520;19.144;2023-11-19T00:01:33;2.60;99.90
45619;DHT22;31343;47.520;19.144;2023-11-19T00:03:59;2.50;99.90
45619;DHT22;31343;47.520;19.144;2023-11-19T00:06:24;2.40;99.90
45619;DHT22;31343;47.520;19.144;2023-11-19T00:08:51;2.30;99.90
45619;DHT22;31343;47.520;19.144;2023-11-19T00:11:17;2.40;99.90
45619;DHT22;31343;47.520;19.144;2023-11-19T00:13:42;2.20;99.90
45619;DHT22;31343;47.520;19.144;2023-11-19T00:16:08;2.30;99.90
45619;DHT22;31343;47.520;19.144;2023-11-19T00:18:35;2.40;99.90
45619;DHT22;31343;47.520;19.144;2023-11-19T00:21:05;2.40;99.90
45619;DHT22;31343;47.520;19.144;2023-11-19T00:23:31;2.40;99.90
45619;DHT22;31343;47.520;19.144;2023-11-19T00:25:56;2.40;99.90
45619;DHT22;31343;47.520;19.144;2023-11-19T00:28:22;2.50;99.90
45619;DHT22;31343;47.520;19.144;2023-11-19T00:30:49;2.40;99.90
45619;DHT22;31343;47.520;19.144;2023-11-19T00:33:15;2.30;99.90
45619;DHT22;31343;47.520;19.144;2023-11-19T00:35:41;2.30;99.90
45619;DHT22;31343;47.520;19.144;2023-11-19T00:38:06;2.20;99.90
45619;DHT22;31343;47.520;19.144;2023-11-19T00:40:32;2.10;99.90
45619;DHT22;31343;47.520;19.144;2023-11-19T00:42:58;2.20;99.90
45619;DHT22;31343;47.520;19.144;2023-11-19T00:45:23;2.00;99.90
45619;DHT22;31343;47.520;19.144;2023-11-19T00:47:49;2.10;99.90
45619;DHT22;31343;47.520;19.144;2023-11-19T00:50:15;2.00;99.90
45619;DHT22;31343;47.520;19.144;2023-11-19T00:52:41;1.90;99.90
45619;DHT22;31343;47.520;19.144;2023-11-19T00:55:07;2.00;99.90
45619;DHT22;31343;47.520;19.144;2023-11-19T00:57:32;2.00;99.90
45619;DHT22;31343;47.520;19.144;2023-11-19T01:00:01;2.00;99.90
45619;DHT22;31343;47.520;19.144;2023-11-19T01:02:32;2.00;99.90
45619;DHT22;31343;47.520;19.144;2023-11-19T01:05:00;2.00;99.90
45619;DHT22;31343;47.520;19.144;2023-11-19T01:07:26;1.90;99.90
45619;DHT22;31343;47.520;19.144;2023-11-19T01:09:52;1.70;99.90
45619;DHT22;31343;47.520;19.144;2023-11-19T01:12:19;1.70;99.90
45619;DHT22;31343;47.520;19.144;2023-11-19T01:14:45;1.70;99.90
45619;DHT22;31343;47.520;19.144;2023-11-19T01:17:11;1.70;99.90
45619;DHT22;31343;47.520;19.144;2023-11-19T01:19:36;1.70;99.90
45619;DHT22;31343;47.520;19.144;2023-11-19T01:22:02;1.80;99.90
45619;DHT22;31343;47.520;19.144;2023-11-19T01:24:28;1.90;99.90
45619;DHT22;31343;47.520;19.144;2023-11-19T01:26:54;1.90;99.90
45619;DHT22;31343;47.520;19.144;2023-11-19T01:29:20;1.80;99.90
45619;DHT22;31343;47.520;19.144;2023-11-19T01:31:46;1.80;99.90
45619;DHT22;31343;47.520;19.144;2023-11-19T01:34:16;1.80;99.90
45619;DHT22;31343;47.520;19.144;2023-11-19T01:36:42;1.90;99.90
45619;DHT22;31343;47.520;19.144;2023-11-19T01:39:09;1.70;99.90
45619;DHT22;31343;47.520;19.144;2023-11-19T01:41:35;1.80;99.90
45619;DHT22;31343;47.520;19.144;2023-11-19T01:44:09;1.80;99.90
45619;DHT22;31343;47.520;19.144;2023-11-19T01:46:38;1.90;99.90
45619;DHT22;31343;47.520;19.144;2023-11-19T01:49:06;1.90;99.90
45619;DHT22;31343;47.520;19.144;2023-11-19T01:51:32;1.90;99.90
45619;DHT22;31343;47.520;19.144;2023-11-19T01:53:59;1.80;99.90
45619;DHT22;31343;47.520;19.144;2023-11-19T01:56:25;1.80;99.90
45619;DHT22;31343;47.520;19.144;2023-11-19T01:58:53;1.70;99.90
45619;DHT22;31343;47.520;19.144;2023-11-19T02:01:22;1.60;99.90
45619;DHT22;31343;47.520;19.144;2023-11-19T02:03:47;1.70;99.90
45619;DHT22;31343;47.520;19.144;2023-11-19T02:06:14;1.70;99.90
45619;DHT22;31343;47.520;19.144;2023-11-19T02:08:39;1.70;99.90
45619;DHT22;31343;47.520;19.144;2023-11-19T02:11:05;1.60;99.90
45619;DHT22;31343;47.520;19.144;2023-11-19T02:13:34;1.60;99.90
45619;DHT22;31343;47.520;19.144;2023-11-19T02:16:03;1.60;99.90
45619;DHT22;31343;47.520;19.144;2023-11-19T02:18:29;1.60;99.90
45619;DHT22;31343;47.520;19.144;2023-11-19T02:20:59;1.70;99.90
45619;DHT22;31343;47.520;19.144;2023-11-19T02:23:27;1.60;99.90
45619;DHT22;31343;47.520;19.144;2023-11-19T02:26:29;1.60;99.90
45619;DHT22;31343;47.520;19.144;2023-11-19T02:28:57;1.60;99.90
45619;DHT22;31343;47.520;19.144;2023-11-19T02:31:22;1.60;99.90
45619;DHT22;31343;47.520;19.144;2023-11-19T02:33:48;1.60;99.90
45619;DHT22;31343;47.520;19.144;2023-11-19T02:36:15;1.60;99.90
45619;DHT22;31343;47.520;19.144;2023-11-19T02:38:42;1.50;99.90
45619;DHT22;31343;47.520;19.144;2023-11-19T02:41:09;1.60;99.90
45619;DHT22;31343;47.520;19.144;2023-11-19T02:43:36;1.60;99.90
45619;DHT22;31343;47.520;19.144;2023-11-19T02:46:03;1.60;99.90
45619;DHT22;31343;47.520;19.144;2023-11-19T02:48:33;1.60;99.90
45619;DHT22;31343;47.520;19.144;2023-11-19T02:51:01;1.50;99.90
45619;DHT22;31343;47.520;19.144;2023-11-19T02:53:31;1.40;99.90
45619;DHT22;31343;47.520;19.144;2023-11-19T02:55:57;1.30;99.90
45619;DHT22;31343;47.520;19.144;2023-11-19T02:58:31;1.30;99.90
45619;DHT22;31343;47.520;19.144;2023-11-19T03:00:57;1.30;99.90
45619;DHT22;31343;47.520;19.144;2023-11-19T03:03:27;1.30;99.90
45619;DHT22;31343;47.520;19.144;2023-11-19T03:06:05;1.30;99.90
45619;DHT22;31343;47.520;19.144;2023-11-19T03:08:32;1.40;99.90
45619;DHT22;31343;47.520;19.144;2023-11-19T03:10:58;1.40;99.90
45619;DHT22;31343;47.520;19.144;2023-11-19T03:13:24;1.30;99.90
45619;DHT22;31343;47.520;19.144;2023-11-19T03:15:50;1.40;99.90
45619;DHT22;31343;47.520;19.144;2023-11-19T03:18:17;1.50;99.90
45619;DHT22;31343;47.520;19.144;2023-11-19T03:20:42;1.40;99.90
45619;DHT22;31343;47.520;19.144;2023-11-19T03:23:08;1.40;99.90
45619;DHT22;31343;47.520;19.144;2023-11-19T03:25:34;1.40;99.90
45619;DHT22;31343;47.520;19.144;2023-11-19T03:28:01;1.30;99.90
45619;DHT22;31343;47.520;19.144;2023-11-19T03:30:28;1.30;99.90
45619;DHT22;31343;47.520;19.144;2023-11-19T03:32:57;1.40;99.90
45619;DHT22;31343;47.520;19.144;2023-11-19T03:35:24;1.40;99.90
45619;DHT22;31343;47.520;19.144;2023-11-19T03:37:50;1.30;99.90
45619;DHT22;31343;47.520;19.144;2023-11-19T03:40:16;1.30;99.90
45619;DHT22;31343;47.520;19.144;2023-11-19T03:42:42;1.30;99.90
45619;DHT22;31343;47.520;19.144;2023-11-19T03:45:09;1.30;99.90
45619;DHT22;31343;47.520;19.144;2023-11-19T03:47:35;1.30;99.90
45619;DHT22;31343;47.520;19.144;2023-11-19T03:50:02;1.30;99.90
45619;DHT22;31343;47.520;19.144;2023-11-19T03:52:28;1.30;99.90
45619;DHT22;31343;47.520;19.144;2023-11-19T03:54:54;1.20;99.90
45619;DHT22;31343;47.520;19.144;2023-11-19T03:57:21;1.30;99.90
45619;DHT22;31343;47.520;19.144;2023-11-19T03:59:47;1.30;99.90
45619;DHT22;31343;47.520;19.144;2023-11-19T04:02:13;1.20;99.90
45619;DHT22;31343;47.520;19.144;2023-11-19T04:04:39;1.20;99.90
45619;DHT22;31343;47.520;19.144;2023-11-19T04:07:05;1.10;99.90
45619;DHT22;31343;47.520;19.144;2023-11-19T04:09:31;1.10;99.90
45619;DHT22;31343;47.520;19.144;2023-11-19T04:12:00;1.10;99.90
45619;DHT22;31343;47.520;19.144;2023-11-19T04:14:26;1.00;99.90
45619;DHT22;31343;47.520;19.144;2023-11-19T04:16:52;0.90;99.90
45619;DHT22;31343;47.520;19.144;2023-11-19T04:19:19;1.00;99.90
45619;DHT22;31343;47.520;19.144;2023-11-19T04:21:45;1.10;99.90
45619;DHT22;31343;47.520;19.144;2023-11-19T04:24:11;1.20;99.90
45619;DHT22;31343;47.520;19.144;2023-11-19T04:26:41;1.20;99.90
45619;DHT22;31343;47.520;19.144;2023-11-19T04:29:14;1.20;99.90
45619;DHT22;31343;47.520;19.144;2023-11-19T04:31:41;1.00;99.90
45619;DHT22;31343;47.520;19.144;2023-11-19T04:34:07;1.10;99.90
45619;DHT22;31343;47.520;19.144;2023-11-19T04:36:33;1.00;99.90
45619;DHT22;31343;47.520;19.144;2023-11-19T04:39:00;1.00;99.90
45619;DHT22;31343;47.520;19.144;2023-11-19T04:41:26;0.90;99.90
45619;DHT22;31343;47.520;19.144;2023-11-19T04:43:55;0.90;99.90
45619;DHT22;31343;47.520;19.144;2023-11-19T04:46:21;0.90;99.90
45619;DHT22;31343;47.520;19.144;2023-11-19T04:48:47;1.00;99.90
45619;DHT22;31343;47.520;19.144;2023-11-19T04:51:13;1.00;99.90
45619;DHT22;31343;47.520;19.144;2023-11-19T04:53:38;1.00;99.90
45619;DHT22;31343;47.520;19.144;2023-11-19T04:56:08;1.00;99.90
45619;DHT22;31343;47.520;19.144;2023-11-19T04:58:34;1.00;99.90
45619;DHT22;31343;47.520;19.144;2023-11-19T05:01:03;1.00;99.90
45619;DHT22;31343;47.520;19.144;2023-11-19T05:03:30;1.00;99.90
45619;DHT22;31343;47.520;19.144;2023-11-19T05:05:55;1.00;99.90
45619;DHT22;31343;47.520;19.144;2023-11-19T05:08:21;1.00;99.90
45619;DHT22;31343;47.520;19.144;2023-11-19T05:10:47;1.00;99.90
45619;DHT22;31343;47.520;19.144;2023-11-19T05:13:12;0.90;99.90
45619;DHT22;31343;47.520;19.144;2023-11-19T05:15:38;1.00;99.90
45619;DHT22;31343;47.520;19.144;2023-11-19T05:18:04;1.00;99.90
45619;DHT22;31343;47.520;19.144;2023-11-19T05:20:30;1.00;99.90
45619;DHT22;31343;47.520;19.144;2023-11-19T05:22:56;1.10;99.90
45619;DHT22;31343;47.520;19.144;2023-11-19T05:25:22;1.10;99.90
45619;DHT22;31343;47.520;19.144;2023-11-19T05:27:47;1.10;99.90
45619;DHT22;31343;47.520;19.144;2023-11-19T05:30:13;1.00;99.90
45619;DHT22;31343;47.520;19.144;2023-11-19T05:32:39;1.10;99.90
45619;DHT22;31343;47.520;19.144;2023-11-19T05:35:05;1.10;99.90
45619;DHT22;31343;47.520;19.144;2023-11-19T05:37:31;1.10;99.90
45619;DHT22;31343;47.520;19.144;2023-11-19T05:39:57;1.00;99.90
45619;DHT22;31343;47.520;19.144;2023-11-19T05:42:22;0.90;99.90
45619;DHT22;31343;47.520;19.144;2023-11-19T05:44:49;0.90;99.90
45619;DHT22;31343;47.520;19.144;2023-11-19T05:47:15;0.90;99.90
45619;DHT22;31343;47.520;19.144;2023-11-19T05:49:41;0.80;99.90
45619;DHT22;31343;47.520;19.144;2023-11-19T05:52:06;0.70;99.90
45619;DHT22;31343;47.520;19.144;2023-11-19T05:54:33;0.70;99.90
45619;DHT22;31343;47.520;19.144;2023-11-19T05:57:06;0.70;99.90
45619;DHT22;31343;47.520;19.144;2023-11-19T05:59:35;0.70;99.90
45619;DHT22;31343;47.520;19.144;2023-11-19T06:02:02;0.70;99.90
45619;DHT22;31343;47.520;19.144;2023-11-19T06:04:28;0.70;99.90
45619;DHT22;31343;47.520;19.144;2023-11-19T06:06:54;0.80;99.90
45619;DHT22;31343;47.520;19.144;2023-11-19T06:09:21;0.90;99.90
45619;DHT22;31343;47.520;19.144;2023-11-19T06:11:49;0.90;99.90
45619;DHT22;31343;47.520;19.144;2023-11-19T06:14:16;0.90;99.90
45619;DHT22;31343;47.520;19.144;2023-11-19T06:16:42;0.90;99.90
45619;DHT22;31343;47.520;19.144;2023-11-19T06:19:07;0.90;99.90
45619;DHT22;31343;47.520;19.144;2023-11-19T06:21:33;0.90;99.90
45619;DHT22;31343;47.520;19.144;2023-11-19T06:24:01;0.90;99.90
45619;DHT22;31343;47.520;19.144;2023-11-19T06:26:27;0.80;99.90
45619;DHT22;31343;47.520;19.144;2023-11-19T06:28:52;0.80;99.90
45619;DHT22;31343;47.520;19.144;2023-11-19T06:31:18;0.70;99.90
45619;DHT22;31343;47.520;19.144;2023-11-19T06:33:44;0.70;99.90
45619;DHT22;31343;47.520;19.144;2023-11-19T06:36:10;0.70;99.90
45619;DHT22;31343;47.520;19.144;2023-11-19T06:38:35;0.70;99.90
45619;DHT22;31343;47.520;19.144;2023-11-19T06:41:01;0.80;99.90
45619;DHT22;31343;47.520;19.144;2023-11-19T06:43:27;0.80;99.90
45619;DHT22;31343;47.520;19.144;2023-11-19T06:45:56;0.90;99.90
45619;DHT22;31343;47.520;19.144;2023-11-19T06:48:22;0.90;99.90
45619;DHT22;31343;47.520;19.144;2023-11-19T06:50:49;1.10;99.90
45619;DHT22;31343;47.520;19.144;2023-11-19T06:53:14;1.10;99.90
45619;DHT22;31343;47.520;19.144;2023-11-19T06:55:41;1.10;99.90
45619;DHT22;31343;47.520;19.144;2023-11-19T06:58:06;1.10;99.90
45619;DHT22;31343;47.520;19.144;2023-11-19T07:00:32;1.10;99.90
45619;DHT22;31343;47.520;19.144;2023-11-19T07:02:59;1.30;99.90
45619;DHT22;31343;47.520;19.144;2023-11-19T07:05:25;1.50;99.90
45619;DHT22;31343;47.520;19.144;2023-11-19T07:07:51;1.70;99.90
45619;DHT22;31343;47.520;19.144;2023-11-19T07:10:16;1.70;99.90
45619;DHT22;31343;47.520;19.144;2023-11-19T07:12:42;1.70;99.90
45619;DHT22;31343;47.520;19.144;2023-11-19T07:15:08;1.70;99.90
45619;DHT22;31343;47.520;19.144;2023-11-19T07:17:34;1.70;99.90
45619;DHT22;31343;47.520;19.144;2023-11-19T07:20:00;1.80;99.90
45619;DHT22;31343;47.520;19.144;2023-11-19T07:22:26;1.90;99.90
45619;DHT22;31343;47.520;19.144;2023-11-19T07:24:52;1.90;99.90
45619;DHT22;31343;47.520;19.144;2023-11-19T07:27:19;2.00;99.90
45619;DHT22;31343;47.520;19.144;2023-11-19T07:29:44;2.00;99.90
45619;DHT22;31343;47.520;19.144;2023-11-19T07:32:11;2.00;99.90
45619;DHT22;31343;47.520;19.144;2023-11-19T07:34:36;1.90;99.90
45619;DHT22;31343;47.520;19.144;2023-11-19T07:37:02;1.90;99.90
45619;DHT22;31343;47.520;19.144;2023-11-19T07:39:29;2.00;99.90
45619;DHT22;31343;47.520;19.144;2023-11-19T07:41:54;2.00;99.90
45619;DHT22;31343;47.520;19.144;2023-11-19T07:44:20;2.00;99.90
45619;DHT22;31343;47.520;19.144;2023-11-19T07:46:50;1.90;99.90
45619;DHT22;31343;47.520;19.144;2023-11-19T07:49:15;1.90;99.90
45619;DHT22;31343;47.520;19.144;2023-11-19T07:51:41;2.00;99.90
45619;DHT22;31343;47.520;19.144;2023-11-19T07:54:07;2.00;99.90
45619;DHT22;31343;47.520;19.144;2023-11-19T07:56:33;2.00;99.90
45619;DHT22;31343;47.520;19.144;2023-11-19T07:59:02;2.10;99.90
45619;DHT22;31343;47.520;19.144;2023-11-19T08:01:28;2.10;99.90
45619;DHT22;31343;47.520;19.144;2023-11-19T08:03:54;2.00;99.90
45619;DHT22;31343;47.520;19.144;2023-11-19T08:06:20;2.10;99.90
45619;DHT22;31343;47.520;19.144;2023-11-19T08:08:46;1.90;99.90
45619;DHT22;31343;47.520;19.144;2023-11-19T08:11:13;2.00;99.90
45619;DHT22;31343;47.520;19.144;2023-11-19T08:13:39;2.10;99.90
45619;DHT22;31343;47.520;19.144;2023-11-19T08:16:05;2.20;99.90
45619;DHT22;31343;47.520;19.144;2023-11-19T08:18:31;2.10;99.90
45619;DHT22;31343;47.520;19.144;2023-11-19T08:20:56;2.10;99.90
45619;DHT22;31343;47.520;19.144;2023-11-19T08:23:24;2.10;99.90
45619;DHT22;31343;47.520;19.144;2023-11-19T08:25:51;2.20;99.90
45619;DHT22;31343;47.520;19.144;2023-11-19T08:28:16;2.10;99.90
45619;DHT22;31343;47.520;19.144;2023-11-19T08:30:42;2.10;99.90
45619;DHT22;31343;47.520;19.144;2023-11-19T08:33:09;2.20;99.90
45619;DHT22;31343;47.520;19.144;2023-11-19T08:35:35;2.20;99.90
45619;DHT22;31343;47.520;19.144;2023-11-19T08:38:01;2.30;99.90
45619;DHT22;31343;47.520;19.144;2023-11-19T08:40:28;2.30;99.90
45619;DHT22;31343;47.520;19.144;2023-11-19T08:42:55;2.30;99.90
45619;DHT22;31343;47.520;19.144;2023-11-19T08:45:21;2.30;99.90
45619;DHT22;31343;47.520;19.144;2023-11-19T08:47:47;2.30;99.90
45619;DHT22;31343;47.520;19.144;2023-11-19T08:50:13;2.40;99.90
45619;DHT22;31343;47.520;19.144;2023-11-19T08:52:39;2.40;99.90
45619;DHT22;31343;47.520;19.144;2023-11-19T08:55:05;2.40;99.90
45619;DHT22;31343;47.520;19.144;2023-11-19T08:57:31;2.60;99.90
45619;DHT22;31343;47.520;19.144;2023-11-19T08:59:58;2.70;99.90
45619;DHT22;31343;47.520;19.144;2023-11-19T09:02:24;2.90;99.90
45619;DHT22;31343;47.520;19.144;2023-11-19T09:04:50;3.00;99.90
45619;DHT22;31343;47.520;19.144;2023-11-19T09:07:16;3.10;99.90
45619;DHT22;31343;47.520;19.144;2023-11-19T09:09:42;3.30;99.90
45619;DHT22;31343;47.520;19.144;2023-11-19T09:12:07;3.40;99.90
45619;DHT22;31343;47.520;19.144;2023-11-19T09:14:33;3.50;99.90
45619;DHT22;31343;47.520;19.144;2023-11-19T09:16:59;3.60;99.90
45619;DHT22;31343;47.520;19.144;2023-11-19T09:19:25;3.60;99.90
45619;DHT22;31343;47.520;19.144;2023-11-19T09:21:52;3.70;99.90
45619;DHT22;31343;47.520;19.144;2023-11-19T09:24:18;3.60;99.90
45619;DHT22;31343;47.520;19.144;2023-11-19T09:26:44;3.50;99.90
45619;DHT22;31343;47.520;19.144;2023-11-19T09:29:10;3.50;99.90
45619;DHT22;31343;47.520;19.144;2023-11-19T09:31:38;3.60;99.90
45619;DHT22;31343;47.520;19.144;2023-11-19T09:34:04;3.60;99.90
45619;DHT22;31343;47.520;19.144;2023-11-19T09:36:30;3.50;99.90
45619;DHT22;31343;47.520;19.144;2023-11-19T09:38:57;3.50;99.90
45619;DHT22;31343;47.520;19.144;2023-11-19T09:41:23;3.40;99.90
45619;DHT22;31343;47.520;19.144;2023-11-19T09:43:50;3.50;99.90
45619;DHT22;31343;47.520;19.144;2023-11-19T09:46:16;3.40;99.90
45619;DHT22;31343;47.520;19.144;2023-11-19T09:48:43;3.40;99.90
45619;DHT22;31343;47.520;19.144;2023-11-19T09:51:10;3.40;99.90
45619;DHT22;31343;47.520;19.144;2023-11-19T09:53:37;3.50;99.90
45619;DHT22;31343;47.520;19.144;2023-11-19T09:56:04;3.60;99.90
45619;DHT22;31343;47.520;19.144;2023-11-19T09:58:33;3.60;99.90
45619;DHT22;31343;47.520;19.144;2023-11-19T10:01:00;3.60;99.90
45619;DHT22;31343;47.520;19.144;2023-11-19T10:03:33;3.50;99.90
45619;DHT22;31343;47.520;19.144;2023-11-19T10:06:01;3.60;99.90
45619;DHT22;31343;47.520;19.144;2023-11-19T10:08:27;3.60;99.90
45619;DHT22;31343;47.520;19.144;2023-11-19T10:10:53;3.60;99.90
45619;DHT22;31343;47.520;19.144;2023-11-19T10:13:19;3.60;99.90
45619;DHT22;31343;47.520;19.144;2023-11-19T10:15:45;3.70;99.90
45619;DHT22;31343;47.520;19.144;2023-11-19T10:18:11;3.70;99.90
45619;DHT22;31343;47.520;19.144;2023-11-19T10:20:42;3.70;99.90
45619;DHT22;31343;47.520;19.144;2023-11-19T10:23:09;3.80;99.90
45619;DHT22;31343;47.520;19.144;2023-11-19T10:25:36;3.80;99.90
45619;DHT22;31343;47.520;19.144;2023-11-19T10:28:02;4.00;99.90
45619;DHT22;31343;47.520;19.144;2023-11-19T10:30:29;4.10;99.90
45619;DHT22;31343;47.520;19.144;2023-11-19T10:33:09;4.10;99.90
45619;DHT22;31343;47.520;19.144;2023-11-19T10:38:20;4.10;99.90
45619;DHT22;31343;47.520;19.144;2023-11-19T10:40:48;4.10;99.90
45619;DHT22;31343;47.520;19.144;2023-11-19T10:43:14;4.10;99.90
45619;DHT22;31343;47.520;19.144;2023-11-19T10:45:40;4.10;99.90
45619;DHT22;31343;47.520;19.144;2023-11-19T10:48:07;4.00;99.90
45619;DHT22;31343;47.520;19.144;2023-11-19T10:50:40;4.20;99.90
45619;DHT22;31343;47.520;19.144;2023-11-19T10:53:08;4.30;99.90
45619;DHT22;31343;47.520;19.144;2023-11-19T10:55:36;4.40;99.90
45619;DHT22;31343;47.520;19.144;2023-11-19T10:58:07;4.40;99.90
45619;DHT22;31343;47.520;19.144;2023-11-19T11:00:51;4.40;99.90
45619;DHT22;31343;47.520;19.144;2023-11-19T11:03:22;4.40;99.90
45619;DHT22;31343;47.520;19.144;2023-11-19T11:05:51;4.40;99.90
45619;DHT22;31343;47.520;19.144;2023-11-19T11:08:18;4.50;99.90
45619;DHT22;31343;47.520;19.144;2023-11-19T11:10:57;4.40;99.90
45619;DHT22;31343;47.520;19.144;2023-11-19T11:13:26;4.30;99.90
45619;DHT22;31343;47.520;19.144;2023-11-19T11:15:56;4.30;99.90
45619;DHT22;31343;47.520;19.144;2023-11-19T11:18:23;4.20;99.90
45619;DHT22;31343;47.520;19.144;2023-11-19T11:20:54;4.20;99.90
45619;DHT22;31343;47.520;19.144;2023-11-19T11:30:02;4.20;99.90
45619;DHT22;31343;47.520;19.144;2023-11-19T11:32:34;4.10;99.90
45619;DHT22;31343;47.520;19.144;2023-11-19T11:35:18;4.20;99.90
45619;DHT22;31343;47.520;19.144;2023-11-19T11:37:50;4.30;99.90
45619;DHT22;31343;47.520;19.144;2023-11-19T11:40:21;4.40;99.90
45619;DHT22;31343;47.520;19.144;2023-11-19T11:42:49;4.30;99.90
45619;DHT22;31343;47.520;19.144;2023-11-19T11:45:17;4.30;99.90
45619;DHT22;31343;47.520;19.144;2023-11-19T11:50:16;4.20;99.90
45619;DHT22;31343;47.520;19.144;2023-11-19T11:55:36;4.20;99.90
45619;DHT22;31343;47.520;19.144;2023-11-19T11:58:03;4.10;99.90
45619;DHT22;31343;47.520;19.144;2023-11-19T12:00:31;4.20;99.90
45619;DHT22;31343;47.520;19.144;2023-11-19T12:03:01;4.20;99.90
45619;DHT22;31343;47.520;19.144;2023-11-19T12:05:27;4.30;99.90
45619;DHT22;31343;47.520;19.144;2023-11-19T12:08:00;4.30;99.90
45619;DHT22;31343;47.520;19.144;2023-11-19T12:10:30;4.40;99.90
45619;DHT22;31343;47.520;19.144;2023-11-19T12:13:01;4.40;99.90
45619;DHT22;31343;47.520;19.144;2023-11-19T12:15:27;4.40;99.90
45619;DHT22;31343;47.520;19.144;2023-11-19T12:17:54;4.50;99.90
45619;DHT22;31343;47.520;19.144;2023-11-19T12:20:24;4.60;99.90
45619;DHT22;31343;47.520;19.144;2023-11-19T12:22:51;4.70;99.90
45619;DHT22;31343;47.520;19.144;2023-11-19T12:25:17;4.60;99.90
45619;DHT22;31343;47.520;19.144;2023-11-19T12:27:46;4.60;99.90
45619;DHT22;31343;47.520;19.144;2023-11-19T12:30:12;4.70;99.90
45619;DHT22;31343;47.520;19.144;2023-11-19T12:32:45;4.70;99.90
45619;DHT22;31343;47.520;19.144;2023-11-19T12:35:12;4.70;99.90
45619;DHT22;31343;47.520;19.144;2023-11-19T12:37:42;4.80;99.90
45619;DHT22;31343;47.520;19.144;2023-11-19T12:40:22;4.80;99.90
45619;DHT22;31343;47.520;19.144;2023-11-19T12:42:48;4.90;99.90
45619;DHT22;31343;47.520;19.144;2023-11-19T12:45:15;4.90;99.90
45619;DHT22;31343;47.520;19.144;2023-11-19T12:47:43;4.90;99.90
45619;DHT22;31343;47.520;19.144;2023-11-19T12:50:10;4.90;99.90
45619;DHT22;31343;47.520;19.144;2023-11-19T12:52:36;4.90;99.90
45619;DHT22;31343;47.520;19.144;2023-11-19T12:55:23;4.80;99.90
45619;DHT22;31343;47.520;19.144;2023-11-19T12:57:49;4.80;99.90
45619;DHT22;31343;47.520;19.144;2023-11-19T13:00:25;4.80;99.90
45619;DHT22;31343;47.520;19.144;2023-11-19T13:02:52;4.80;99.90
45619;DHT22;31343;47.520;19.144;2023-11-19T13:07:59;4.90;99.90
45619;DHT22;31343;47.520;19.144;2023-11-19T13:10:27;4.90;99.90
45619;DHT22;31343;47.520;19.144;2023-11-19T13:13:06;5.00;99.90
45619;DHT22;31343;47.520;19.144;2023-11-19T13:15:33;5.00;99.90
45619;DHT22;31343;47.520;19.144;2023-11-19T13:17:59;5.00;99.90
45619;DHT22;31343;47.520;19.144;2023-11-19T13:20:25;5.00;99.90
45619;DHT22;31343;47.520;19.144;2023-11-19T13:22:58;4.90;99.90
45619;DHT22;31343;47.520;19.144;2023-11-19T13:25:28;4.90;99.90
45619;DHT22;31343;47.520;19.144;2023-11-19T13:27:55;4.90;99.90
45619;DHT22;31343;47.520;19.144;2023-11-19T13:30:22;4.80;99.90
45619;DHT22;31343;47.520;19.144;2023-11-19T13:32:48;4.80;99.90
45619;DHT22;31343;47.520;19.144;2023-11-19T13:35:15;4.90;99.90
45619;DHT22;31343;47.520;19.144;2023-11-19T13:37:41;4.90;99.90
45619;DHT22;31343;47.520;19.144;2023-11-19T13:40:07;4.90;99.90
45619;DHT22;31343;47.520;19.144;2023-11-19T13:42:38;4.90;99.90
45619;DHT22;31343;47.520;19.144;2023-11-19T13:47:36;5.10;99.90
45619;DHT22;31343;47.520;19.144;2023-11-19T13:50:02;5.10;99.90
45619;DHT22;31343;47.520;19.144;2023-11-19T13:52:31;5.10;99.90
45619;DHT22;31343;47.520;19.144;2023-11-19T13:54:57;5.10;99.90
45619;DHT22;31343;47.520;19.144;2023-11-19T13:57:22;5.10;99.90
45619;DHT22;31343;47.520;19.144;2023-11-19T13:59:48;5.10;99.90
45619;DHT22;31343;47.520;19.144;2023-11-19T14:02:15;5.10;99.90
45619;DHT22;31343;47.520;19.144;2023-11-19T14:04:40;5.20;99.90
45619;DHT22;31343;47.520;19.144;2023-11-19T14:07:06;5.30;99.90
45619;DHT22;31343;47.520;19.144;2023-11-19T14:09:32;5.30;99.90
45619;DHT22;31343;47.520;19.144;2023-11-19T14:11:58;5.30;99.90
45619;DHT22;31343;47.520;19.144;2023-11-19T14:14:24;5.30;99.90
45619;DHT22;31343;47.520;19.144;2023-11-19T14:16:49;5.30;99.90
45619;DHT22;31343;47.520;19.144;2023-11-19T14:19:15;5.20;99.90
45619;DHT22;31343;47.520;19.144;2023-11-19T14:21:42;5.20;99.90
45619;DHT22;31343;47.520;19.144;2023-11-19T14:24:08;5.10;99.90
45619;DHT22;31343;47.520;19.144;2023-11-19T14:26:33;5.10;99.90
45619;DHT22;31343;47.520;19.144;2023-11-19T14:28:59;5.20;99.90
45619;DHT22;31343;47.520;19.144;2023-11-19T14:31:28;5.20;99.90
45619;DHT22;31343;47.520;19.144;2023-11-19T14:33:54;5.20;99.90
45619;DHT22;31343;47.520;19.144;2023-11-19T14:36:20;5.30;99.90
45619;DHT22;31343;47.520;19.144;2023-11-19T14:38:47;5.20;99.90
45619;DHT22;31343;47.520;19.144;2023-11-19T14:41:12;5.20;99.90
45619;DHT22;31343;47.520;19.144;2023-11-19T14:43:39;5.20;99.90
45619;DHT22;31343;47.520;19.144;2023-11-19T14:46:05;5.20;99.90
45619;DHT22;31343;47.520;19.144;2023-11-19T14:48:32;5.30;99.90
45619;DHT22;31343;47.520;19.144;2023-11-19T14:50:58;5.30;99.90
45619;DHT22;31343;47.520;19.144;2023-11-19T14:53:23;5.20;99.90
45619;DHT22;31343;47.520;19.144;2023-11-19T14:55:49;5.10;99.90
45619;DHT22;31343;47.520;19.144;2023-11-19T14:58:15;5.10;99.90
45619;DHT22;31343;47.520;19.144;2023-11-19T15:00:41;5.10;99.90
45619;DHT22;31343;47.520;19.144;2023-11-19T15:03:06;5.20;99.90
45619;DHT22;31343;47.520;19.144;2023-11-19T15:05:34;5.20;99.90
45619;DHT22;31343;47.520;19.144;2023-11-19T15:07:59;5.20;99.90
45619;DHT22;31343;47.520;19.144;2023-11-19T15:10:25;5.20;99.90
45619;DHT22;31343;47.520;19.144;2023-11-19T15:12:51;5.10;99.90
45619;DHT22;31343;47.520;19.144;2023-11-19T15:15:18;4.90;99.90
45619;DHT22;31343;47.520;19.144;2023-11-19T15:17:44;4.90;99.90
45619;DHT22;31343;47.520;19.144;2023-11-19T15:20:10;4.80;99.90
45619;DHT22;31343;47.520;19.144;2023-11-19T15:22:38;4.80;99.90
45619;DHT22;31343;47.520;19.144;2023-11-19T15:25:04;4.80;99.90
45619;DHT22;31343;47.520;19.144;2023-11-19T15:27:35;4.80;99.90
45619;DHT22;31343;47.520;19.144;2023-11-19T15:30:02;4.70;99.90
45619;DHT22;31343;47.520;19.144;2023-11-19T15:32:28;4.70;99.90
45619;DHT22;31343;47.520;19.144;2023-11-19T15:34:57;4.80;99.90
45619;DHT22;31343;47.520;19.144;2023-11-19T15:37:24;4.70;99.90
45619;DHT22;31343;47.520;19.144;2023-11-19T15:39:50;4.70;99.90
45619;DHT22;31343;47.520;19.144;2023-11-19T15:42:17;4.80;99.90
45619;DHT22;31343;47.520;19.144;2023-11-19T15:44:43;4.80;99.90
45619;DHT22;31343;47.520;19.144;2023-11-19T15:47:09;4.80;99.90
45619;DHT22;31343;47.520;19.144;2023-11-19T15:49:35;4.80;99.90